sensor_id;sensor_type;location;lat;lon;timestamp;temperature;humidity
2042;DHT22;1026;51.460;7.252;2022-12-18T00:01:57;-2.40;83.90
2042;DHT22;1026;51.460;7.252;2022-12-18T00:04:25;-2.30;83.90
2042;DHT22;1026;51.460;7.252;2022-12-18T00:06:51;-2.40;83.80
2042;DHT22;1026;51.460;7.252;2022-12-18T00:09:18;-2.30;83.80
2042;DHT22;1026;51.460;7.252;2022-12-18T00:11:44;-2.30;83.90
2042;DHT22;1026;51.460;7.252;2022-12-18T00:14:12;-2.30;83.80
2042;DHT22;1026;51.460;7.252;2022-12-18T00:16:38;-2.40;83.80
2042;DHT22;1026;51.460;7.252;2022-12-18T00:19:05;-2.30;83.80
2042;DHT22;1026;51.460;7.252;2022-12-18T00:21:32;-2.30;83.80
2042;DHT22;1026;51.460;7.252;2022-12-18T00:23:58;-2.30;83.80
2042;DHT22;1026;51.460;7.252;2022-12-18T00:26:27;-2.30;83.80
2042;DHT22;1026;51.460;7.252;2022-12-18T00:28:54;-2.30;83.70
2042;DHT22;1026;51.460;7.252;2022-12-18T00:31:22;-2.30;83.60
2042;DHT22;1026;51.460;7.252;2022-12-18T00:33:48;-2.30;83.70
2042;DHT22;1026;51.460;7.252;2022-12-18T00:36:23;-2.30;83.60
2042;DHT22;1026;51.460;7.252;2022-12-18T00:38:49;-2.30;83.70
2042;DHT22;1026;51.460;7.252;2022-12-18T00:41:16;-2.40;83.60
2042;DHT22;1026;51.460;7.252;2022-12-18T00:44:02;-2.40;83.60
2042;DHT22;1026;51.460;7.252;2022-12-18T00:46:28;-2.40;83.60
2042;DHT22;1026;51.460;7.252;2022-12-18T00:48:54;-2.40;83.50
2042;DHT22;1026;51.460;7.252;2022-12-18T00:51:19;-2.40;83.50
2042;DHT22;1026;51.460;7.252;2022-12-18T00:53:45;-2.40;83.50
2042;DHT22;1026;51.460;7.252;2022-12-18T00:56:11;-2.40;83.50
2042;DHT22;1026;51.460;7.252;2022-12-18T00:58:37;-2.40;83.40
2042;DHT22;1026;51.460;7.252;2022-12-18T01:01:05;-2.40;83.40
2042;DHT22;1026;51.460;7.252;2022-12-18T01:03:30;-2.40;83.40
2042;DHT22;1026;51.460;7.252;2022-12-18T01:05:56;-2.40;83.40
2042;DHT22;1026;51.460;7.252;2022-12-18T01:08:23;-2.40;83.30
2042;DHT22;1026;51.460;7.252;2022-12-18T01:10:48;-2.40;83.40
2042;DHT22;1026;51.460;7.252;2022-12-18T01:13:14;-2.40;83.30
2042;DHT22;1026;51.460;7.252;2022-12-18T01:15:40;-2.40;83.30
2042;DHT22;1026;51.460;7.252;2022-12-18T01:18:06;-2.40;83.20
2042;DHT22;1026;51.460;7.252;2022-12-18T01:20:32;-2.40;83.30
2042;DHT22;1026;51.460;7.252;2022-12-18T01:22:58;-2.40;83.30
2042;DHT22;1026;51.460;7.252;2022-12-18T01:25:24;-2.40;83.20
2042;DHT22;1026;51.460;7.252;2022-12-18T01:27:50;-2.40;83.30
2042;DHT22;1026;51.460;7.252;2022-12-18T01:30:16;-2.40;83.30
2042;DHT22;1026;51.460;7.252;2022-12-18T01:32:41;-2.40;83.30
2042;DHT22;1026;51.460;7.252;2022-12-18T01:35:07;-2.50;83.10
2042;DHT22;1026;51.460;7.252;2022-12-18T01:37:39;-2.40;83.20
2042;DHT22;1026;51.460;7.252;2022-12-18T01:40:05;-2.40;83.20
2042;DHT22;1026;51.460;7.252;2022-12-18T01:42:31;-2.50;83.00
2042;DHT22;1026;51.460;7.252;2022-12-18T01:47:47;-2.50;83.00
2042;DHT22;1026;51.460;7.252;2022-12-18T01:52:43;-2.60;82.80
2042;DHT22;1026;51.460;7.252;2022-12-18T01:55:09;-2.50;82.90
2042;DHT22;1026;51.460;7.252;2022-12-18T01:57:36;-2.60;82.80
2042;DHT22;1026;51.460;7.252;2022-12-18T02:00:09;-2.50;82.90
2042;DHT22;1026;51.460;7.252;2022-12-18T02:02:35;-2.50;82.80
2042;DHT22;1026;51.460;7.252;2022-12-18T02:05:02;-2.50;82.80
2042;DHT22;1026;51.460;7.252;2022-12-18T02:12:42;-2.70;82.60
2042;DHT22;1026;51.460;7.252;2022-12-18T02:15:19;-2.50;82.70
2042;DHT22;1026;51.460;7.252;2022-12-18T02:17:55;-2.50;82.70
2042;DHT22;1026;51.460;7.252;2022-12-18T02:20:33;-2.50;82.70
2042;DHT22;1026;51.460;7.252;2022-12-18T02:23:13;-2.60;82.60
2042;DHT22;1026;51.460;7.252;2022-12-18T02:28:48;-2.60;82.50
2042;DHT22;1026;51.460;7.252;2022-12-18T02:31:19;-2.60;82.60
2042;DHT22;1026;51.460;7.252;2022-12-18T02:33:47;-2.60;82.60
2042;DHT22;1026;51.460;7.252;2022-12-18T02:36:15;-2.60;82.60
2042;DHT22;1026;51.460;7.252;2022-12-18T02:38:42;-2.60;82.60
2042;DHT22;1026;51.460;7.252;2022-12-18T02:41:10;-2.60;82.70
2042;DHT22;1026;51.460;7.252;2022-12-18T02:43:36;-2.60;82.70
2042;DHT22;1026;51.460;7.252;2022-12-18T02:48:49;-2.60;82.80
2042;DHT22;1026;51.460;7.252;2022-12-18T02:51:33;-2.60;82.80
2042;DHT22;1026;51.460;7.252;2022-12-18T02:54:06;-2.60;82.80
2042;DHT22;1026;51.460;7.252;2022-12-18T02:56:42;-2.60;82.70
2042;DHT22;1026;51.460;7.252;2022-12-18T02:59:16;-2.60;82.80
2042;DHT22;1026;51.460;7.252;2022-12-18T03:01:51;-2.60;82.80
2042;DHT22;1026;51.460;7.252;2022-12-18T03:04:26;-2.60;82.80
2042;DHT22;1026;51.460;7.252;2022-12-18T03:06:57;-2.70;82.60
2042;DHT22;1026;51.460;7.252;2022-12-18T03:09:29;-2.60;82.80
2042;DHT22;1026;51.460;7.252;2022-12-18T03:12:03;-2.70;82.60
2042;DHT22;1026;51.460;7.252;2022-12-18T03:14:45;-2.60;82.70
2042;DHT22;1026;51.460;7.252;2022-12-18T03:17:17;-2.60;82.70
2042;DHT22;1026;51.460;7.252;2022-12-18T03:19:46;-2.60;82.80
2042;DHT22;1026;51.460;7.252;2022-12-18T03:22:13;-2.60;82.70
2042;DHT22;1026;51.460;7.252;2022-12-18T03:24:41;-2.60;82.80
2042;DHT22;1026;51.460;7.252;2022-12-18T03:27:12;-2.60;82.80
2042;DHT22;1026;51.460;7.252;2022-12-18T03:29:48;-2.80;82.60
2042;DHT22;1026;51.460;7.252;2022-12-18T03:32:30;-2.60;82.80
2042;DHT22;1026;51.460;7.252;2022-12-18T03:35:03;-2.60;82.80
2042;DHT22;1026;51.460;7.252;2022-12-18T03:37:29;-2.60;82.80
2042;DHT22;1026;51.460;7.252;2022-12-18T03:39:56;-2.60;82.80
2042;DHT22;1026;51.460;7.252;2022-12-18T03:45:11;-2.60;82.70
2042;DHT22;1026;51.460;7.252;2022-12-18T03:47:40;-2.60;82.70
2042;DHT22;1026;51.460;7.252;2022-12-18T03:50:17;-2.60;82.70
2042;DHT22;1026;51.460;7.252;2022-12-18T03:52:54;-2.60;82.80
2042;DHT22;1026;51.460;7.252;2022-12-18T03:55:21;-2.60;82.80
2042;DHT22;1026;51.460;7.252;2022-12-18T03:57:48;-2.60;82.80
2042;DHT22;1026;51.460;7.252;2022-12-18T04:00:17;-2.60;82.80
2042;DHT22;1026;51.460;7.252;2022-12-18T04:02:47;-2.60;82.80
2042;DHT22;1026;51.460;7.252;2022-12-18T04:05:15;-2.60;82.80
2042;DHT22;1026;51.460;7.252;2022-12-18T04:07:41;-2.60;82.80
2042;DHT22;1026;51.460;7.252;2022-12-18T04:10:12;-2.60;82.80
2042;DHT22;1026;51.460;7.252;2022-12-18T04:12:39;-2.70;82.60
2042;DHT22;1026;51.460;7.252;2022-12-18T04:15:06;-2.70;82.60
2042;DHT22;1026;51.460;7.252;2022-12-18T04:17:32;-2.60;82.80
2042;DHT22;1026;51.460;7.252;2022-12-18T04:19:57;-2.70;82.60
2042;DHT22;1026;51.460;7.252;2022-12-18T04:22:23;-2.60;82.80
2042;DHT22;1026;51.460;7.252;2022-12-18T04:24:49;-2.60;82.80
2042;DHT22;1026;51.460;7.252;2022-12-18T04:27:14;-2.60;82.80
2042;DHT22;1026;51.460;7.252;2022-12-18T04:29:40;-2.80;82.60
2042;DHT22;1026;51.460;7.252;2022-12-18T04:32:07;-2.70;82.70
2042;DHT22;1026;51.460;7.252;2022-12-18T04:34:32;-2.60;82.80
2042;DHT22;1026;51.460;7.252;2022-12-18T04:36:58;-2.60;82.80
2042;DHT22;1026;51.460;7.252;2022-12-18T04:39:24;-2.60;82.80
2042;DHT22;1026;51.460;7.252;2022-12-18T04:41:50;-2.70;82.70
2042;DHT22;1026;51.460;7.252;2022-12-18T04:44:15;-2.60;82.80
2042;DHT22;1026;51.460;7.252;2022-12-18T04:46:41;-2.70;82.70
2042;DHT22;1026;51.460;7.252;2022-12-18T04:49:07;-2.70;82.70
2042;DHT22;1026;51.460;7.252;2022-12-18T04:51:32;-2.60;82.80
2042;DHT22;1026;51.460;7.252;2022-12-18T04:53:58;-2.60;82.80
2042;DHT22;1026;51.460;7.252;2022-12-18T04:56:24;-2.60;82.70
2042;DHT22;1026;51.460;7.252;2022-12-18T04:58:49;-2.60;82.70
2042;DHT22;1026;51.460;7.252;2022-12-18T05:01:16;-2.60;82.60
2042;DHT22;1026;51.460;7.252;2022-12-18T05:03:43;-2.60;82.70
2042;DHT22;1026;51.460;7.252;2022-12-18T05:06:09;-2.60;82.60
2042;DHT22;1026;51.460;7.252;2022-12-18T05:08:35;-2.70;82.50
2042;DHT22;1026;51.460;7.252;2022-12-18T05:11:04;-2.70;82.50
2042;DHT22;1026;51.460;7.252;2022-12-18T05:13:30;-2.70;82.50
2042;DHT22;1026;51.460;7.252;2022-12-18T05:15:56;-2.70;82.50
2042;DHT22;1026;51.460;7.252;2022-12-18T05:18:23;-2.70;82.50
2042;DHT22;1026;51.460;7.252;2022-12-18T05:20:50;-2.70;82.50
2042;DHT22;1026;51.460;7.252;2022-12-18T05:23:16;-2.70;82.40
2042;DHT22;1026;51.460;7.252;2022-12-18T05:25:41;-2.90;82.30
2042;DHT22;1026;51.460;7.252;2022-12-18T05:28:07;-2.70;82.40
2042;DHT22;1026;51.460;7.252;2022-12-18T05:30:33;-2.70;82.40
2042;DHT22;1026;51.460;7.252;2022-12-18T05:32:58;-2.70;82.40
2042;DHT22;1026;51.460;7.252;2022-12-18T05:35:24;-2.70;82.40
2042;DHT22;1026;51.460;7.252;2022-12-18T05:37:50;-2.70;82.40
2042;DHT22;1026;51.460;7.252;2022-12-18T05:40:15;-2.70;82.30
2042;DHT22;1026;51.460;7.252;2022-12-18T05:42:41;-2.70;82.30
2042;DHT22;1026;51.460;7.252;2022-12-18T05:45:07;-2.70;82.30
2042;DHT22;1026;51.460;7.252;2022-12-18T05:47:33;-2.70;82.30
2042;DHT22;1026;51.460;7.252;2022-12-18T05:49:59;-2.90;82.20
2042;DHT22;1026;51.460;7.252;2022-12-18T05:52:25;-2.70;82.30
2042;DHT22;1026;51.460;7.252;2022-12-18T05:54:50;-2.70;82.30
2042;DHT22;1026;51.460;7.252;2022-12-18T05:57:16;-2.70;82.20
2042;DHT22;1026;51.460;7.252;2022-12-18T05:59:42;-2.70;82.30
2042;DHT22;1026;51.460;7.252;2022-12-18T06:02:07;-2.70;82.20
2042;DHT22;1026;51.460;7.252;2022-12-18T06:04:33;-2.70;82.10
2042;DHT22;1026;51.460;7.252;2022-12-18T06:06:59;-2.70;82.20
2042;DHT22;1026;51.460;7.252;2022-12-18T06:09:24;-2.80;82.00
2042;DHT22;1026;51.460;7.252;2022-12-18T06:11:52;-2.70;82.10
2042;DHT22;1026;51.460;7.252;2022-12-18T06:14:17;-2.70;82.20
2042;DHT22;1026;51.460;7.252;2022-12-18T06:16:43;-2.80;82.00
2042;DHT22;1026;51.460;7.252;2022-12-18T06:19:14;-2.80;82.00
2042;DHT22;1026;51.460;7.252;2022-12-18T06:21:40;-2.80;82.00
2042;DHT22;1026;51.460;7.252;2022-12-18T06:24:06;-2.70;82.10
2042;DHT22;1026;51.460;7.252;2022-12-18T06:26:31;-2.80;82.00
2042;DHT22;1026;51.460;7.252;2022-12-18T06:28:57;-2.80;82.00
2042;DHT22;1026;51.460;7.252;2022-12-18T06:31:23;-2.80;82.00
2042;DHT22;1026;51.460;7.252;2022-12-18T06:33:49;-2.80;82.00
2042;DHT22;1026;51.460;7.252;2022-12-18T06:36:14;-2.80;82.00
2042;DHT22;1026;51.460;7.252;2022-12-18T06:38:42;-2.80;82.00
2042;DHT22;1026;51.460;7.252;2022-12-18T06:41:14;-2.80;81.90
2042;DHT22;1026;51.460;7.252;2022-12-18T06:43:40;-2.80;81.90
2042;DHT22;1026;51.460;7.252;2022-12-18T06:46:06;-2.80;81.90
2042;DHT22;1026;51.460;7.252;2022-12-18T06:48:32;-2.80;81.80
2042;DHT22;1026;51.460;7.252;2022-12-18T06:50:58;-2.80;81.80
2042;DHT22;1026;51.460;7.252;2022-12-18T06:53:24;-2.80;81.80
2042;DHT22;1026;51.460;7.252;2022-12-18T06:55:50;-2.80;81.80
2042;DHT22;1026;51.460;7.252;2022-12-18T06:58:16;-2.80;81.80
2042;DHT22;1026;51.460;7.252;2022-12-18T07:00:42;-2.80;81.80
2042;DHT22;1026;51.460;7.252;2022-12-18T07:03:08;-2.80;81.70
2042;DHT22;1026;51.460;7.252;2022-12-18T07:05:33;-2.80;81.70
2042;DHT22;1026;51.460;7.252;2022-12-18T07:07:59;-2.80;81.70
2042;DHT22;1026;51.460;7.252;2022-12-18T07:10:25;-2.80;81.70
2042;DHT22;1026;51.460;7.252;2022-12-18T07:12:50;-2.80;81.60
2042;DHT22;1026;51.460;7.252;2022-12-18T07:15:16;-2.80;81.70
2042;DHT22;1026;51.460;7.252;2022-12-18T07:17:42;-3.00;81.50
2042;DHT22;1026;51.460;7.252;2022-12-18T07:20:08;-2.90;81.50
2042;DHT22;1026;51.460;7.252;2022-12-18T07:22:34;-3.00;81.50
2042;DHT22;1026;51.460;7.252;2022-12-18T07:24:59;-2.90;81.50
2042;DHT22;1026;51.460;7.252;2022-12-18T07:27:25;-2.90;81.40
2042;DHT22;1026;51.460;7.252;2022-12-18T07:29:51;-2.90;81.40
2042;DHT22;1026;51.460;7.252;2022-12-18T07:32:16;-2.90;81.40
2042;DHT22;1026;51.460;7.252;2022-12-18T07:34:42;-2.90;81.40
2042;DHT22;1026;51.460;7.252;2022-12-18T07:37:08;-2.90;81.40
2042;DHT22;1026;51.460;7.252;2022-12-18T07:39:33;-2.90;81.40
2042;DHT22;1026;51.460;7.252;2022-12-18T07:41:59;-2.90;81.40
2042;DHT22;1026;51.460;7.252;2022-12-18T07:44:40;-2.90;81.40
2042;DHT22;1026;51.460;7.252;2022-12-18T07:47:12;-2.90;81.40
2042;DHT22;1026;51.460;7.252;2022-12-18T07:49:37;-2.90;82.00
2042;DHT22;1026;51.460;7.252;2022-12-18T07:52:03;-2.90;81.30
2042;DHT22;1026;51.460;7.252;2022-12-18T07:54:29;-2.90;81.30
2042;DHT22;1026;51.460;7.252;2022-12-18T07:56:54;-2.90;81.30
2042;DHT22;1026;51.460;7.252;2022-12-18T07:59:20;-2.90;81.40
2042;DHT22;1026;51.460;7.252;2022-12-18T08:01:45;-2.90;81.30
2042;DHT22;1026;51.460;7.252;2022-12-18T08:04:11;-2.90;81.30
2042;DHT22;1026;51.460;7.252;2022-12-18T08:06:37;-3.00;81.10
2042;DHT22;1026;51.460;7.252;2022-12-18T08:09:02;-2.90;81.20
2042;DHT22;1026;51.460;7.252;2022-12-18T08:11:29;-2.90;81.30
2042;DHT22;1026;51.460;7.252;2022-12-18T08:13:55;-2.90;81.30
2042;DHT22;1026;51.460;7.252;2022-12-18T08:16:22;-2.90;81.30
2042;DHT22;1026;51.460;7.252;2022-12-18T08:18:48;-3.00;81.20
2042;DHT22;1026;51.460;7.252;2022-12-18T08:21:16;-3.00;81.20
2042;DHT22;1026;51.460;7.252;2022-12-18T08:23:42;-3.00;81.20
2042;DHT22;1026;51.460;7.252;2022-12-18T08:26:08;-3.00;81.20
2042;DHT22;1026;51.460;7.252;2022-12-18T08:28:35;-3.00;81.20
2042;DHT22;1026;51.460;7.252;2022-12-18T08:31:01;-3.00;81.20
2042;DHT22;1026;51.460;7.252;2022-12-18T08:33:27;-3.00;81.20
2042;DHT22;1026;51.460;7.252;2022-12-18T08:35:53;-3.00;81.10
2042;DHT22;1026;51.460;7.252;2022-12-18T08:38:18;-3.10;81.10
2042;DHT22;1026;51.460;7.252;2022-12-18T08:40:45;-3.00;81.20
2042;DHT22;1026;51.460;7.252;2022-12-18T08:43:11;-3.00;81.20
2042;DHT22;1026;51.460;7.252;2022-12-18T08:45:52;-3.10;81.10
2042;DHT22;1026;51.460;7.252;2022-12-18T08:48:17;-3.00;81.20
2042;DHT22;1026;51.460;7.252;2022-12-18T08:50:43;-3.00;81.20
2042;DHT22;1026;51.460;7.252;2022-12-18T08:53:08;-3.00;81.30
2042;DHT22;1026;51.460;7.252;2022-12-18T08:55:34;-3.00;81.30
2042;DHT22;1026;51.460;7.252;2022-12-18T08:58:00;-3.00;81.30
2042;DHT22;1026;51.460;7.252;2022-12-18T09:00:25;-3.00;81.30
2042;DHT22;1026;51.460;7.252;2022-12-18T09:02:51;-3.00;81.20
2042;DHT22;1026;51.460;7.252;2022-12-18T09:05:17;-3.10;81.30
2042;DHT22;1026;51.460;7.252;2022-12-18T09:07:42;-3.00;81.30
2042;DHT22;1026;51.460;7.252;2022-12-18T09:10:08;-3.00;81.30
2042;DHT22;1026;51.460;7.252;2022-12-18T09:12:34;-3.00;81.30
2042;DHT22;1026;51.460;7.252;2022-12-18T09:14:59;-3.00;81.30
2042;DHT22;1026;51.460;7.252;2022-12-18T09:17:25;-3.00;81.40
2042;DHT22;1026;51.460;7.252;2022-12-18T09:19:51;-3.00;81.40
2042;DHT22;1026;51.460;7.252;2022-12-18T09:22:17;-3.00;81.40
2042;DHT22;1026;51.460;7.252;2022-12-18T09:24:42;-3.00;81.40
2042;DHT22;1026;51.460;7.252;2022-12-18T09:27:08;-3.00;81.50
2042;DHT22;1026;51.460;7.252;2022-12-18T09:29:34;-3.00;81.50
2042;DHT22;1026;51.460;7.252;2022-12-18T09:31:59;-3.00;81.50
2042;DHT22;1026;51.460;7.252;2022-12-18T09:34:25;-2.90;81.50
2042;DHT22;1026;51.460;7.252;2022-12-18T09:36:50;-2.90;81.50
2042;DHT22;1026;51.460;7.252;2022-12-18T09:39:23;-3.00;81.50
2042;DHT22;1026;51.460;7.252;2022-12-18T09:41:57;-2.90;81.60
2042;DHT22;1026;51.460;7.252;2022-12-18T09:44:27;-2.90;81.60
2042;DHT22;1026;51.460;7.252;2022-12-18T09:47:11;-2.90;81.60
2042;DHT22;1026;51.460;7.252;2022-12-18T09:49:43;-2.90;81.60
2042;DHT22;1026;51.460;7.252;2022-12-18T09:52:14;-2.90;81.60
2042;DHT22;1026;51.460;7.252;2022-12-18T09:54:46;-2.90;81.60
2042;DHT22;1026;51.460;7.252;2022-12-18T09:57:17;-2.90;81.60
2042;DHT22;1026;51.460;7.252;2022-12-18T09:59:48;-2.90;81.60
2042;DHT22;1026;51.460;7.252;2022-12-18T10:02:20;-2.80;81.70
2042;DHT22;1026;51.460;7.252;2022-12-18T10:04:55;-2.80;81.70
2042;DHT22;1026;51.460;7.252;2022-12-18T10:10:32;-2.90;81.60
2042;DHT22;1026;51.460;7.252;2022-12-18T10:13:08;-2.80;81.70
2042;DHT22;1026;51.460;7.252;2022-12-18T10:15:49;-2.80;81.70
2042;DHT22;1026;51.460;7.252;2022-12-18T10:18:30;-2.80;81.70
2042;DHT22;1026;51.460;7.252;2022-12-18T10:21:05;-2.80;81.70
2042;DHT22;1026;51.460;7.252;2022-12-18T10:23:47;-2.80;81.80
2042;DHT22;1026;51.460;7.252;2022-12-18T10:26:15;-2.80;81.80
2042;DHT22;1026;51.460;7.252;2022-12-18T10:28:41;-2.80;81.90
2042;DHT22;1026;51.460;7.252;2022-12-18T10:31:14;-2.70;82.00
2042;DHT22;1026;51.460;7.252;2022-12-18T10:33:41;-2.70;81.90
2042;DHT22;1026;51.460;7.252;2022-12-18T10:36:07;-2.70;81.80
2042;DHT22;1026;51.460;7.252;2022-12-18T10:38:33;-2.70;81.80
2042;DHT22;1026;51.460;7.252;2022-12-18T10:40:59;-2.80;81.70
2042;DHT22;1026;51.460;7.252;2022-12-18T10:43:27;-2.80;81.80
2042;DHT22;1026;51.460;7.252;2022-12-18T10:48:56;-2.70;81.90
2042;DHT22;1026;51.460;7.252;2022-12-18T10:51:25;-2.60;82.00
2042;DHT22;1026;51.460;7.252;2022-12-18T10:53:57;-2.60;82.10
2042;DHT22;1026;51.460;7.252;2022-12-18T10:56:27;-2.60;82.10
2042;DHT22;1026;51.460;7.252;2022-12-18T11:01:24;-2.60;82.10
2042;DHT22;1026;51.460;7.252;2022-12-18T11:06:19;-2.50;82.00
2042;DHT22;1026;51.460;7.252;2022-12-18T11:09:03;-2.50;82.10
2042;DHT22;1026;51.460;7.252;2022-12-18T11:11:29;-2.60;82.00
2042;DHT22;1026;51.460;7.252;2022-12-18T11:16:23;-2.50;82.10
2042;DHT22;1026;51.460;7.252;2022-12-18T11:18:49;-2.50;82.10
2042;DHT22;1026;51.460;7.252;2022-12-18T11:21:15;-2.40;82.20
2042;DHT22;1026;51.460;7.252;2022-12-18T11:23:56;-2.40;82.30
2042;DHT22;1026;51.460;7.252;2022-12-18T11:26:34;-2.40;82.30
2042;DHT22;1026;51.460;7.252;2022-12-18T11:29:10;-2.40;82.30
2042;DHT22;1026;51.460;7.252;2022-12-18T11:31:41;-2.40;82.30
2042;DHT22;1026;51.460;7.252;2022-12-18T11:34:25;-2.40;82.40
2042;DHT22;1026;51.460;7.252;2022-12-18T11:36:53;-2.40;82.40
2042;DHT22;1026;51.460;7.252;2022-12-18T11:42:14;-2.30;82.60
2042;DHT22;1026;51.460;7.252;2022-12-18T11:50:32;-2.30;82.70
2042;DHT22;1026;51.460;7.252;2022-12-18T11:52:59;-2.30;82.80
2042;DHT22;1026;51.460;7.252;2022-12-18T11:55:41;-2.30;82.80
2042;DHT22;1026;51.460;7.252;2022-12-18T12:06:39;-2.20;83.10
2042;DHT22;1026;51.460;7.252;2022-12-18T12:12:32;-2.20;83.10
2042;DHT22;1026;51.460;7.252;2022-12-18T12:23:42;-2.10;83.20
2042;DHT22;1026;51.460;7.252;2022-12-18T12:26:18;-2.30;83.10
2042;DHT22;1026;51.460;7.252;2022-12-18T12:29:09;-2.10;83.20
2042;DHT22;1026;51.460;7.252;2022-12-18T12:31:46;-2.10;83.30
2042;DHT22;1026;51.460;7.252;2022-12-18T12:34:20;-2.10;83.20
2042;DHT22;1026;51.460;7.252;2022-12-18T12:37:01;-2.10;83.30
2042;DHT22;1026;51.460;7.252;2022-12-18T12:39:35;-2.00;83.50
2042;DHT22;1026;51.460;7.252;2022-12-18T12:42:04;-2.00;83.60
2042;DHT22;1026;51.460;7.252;2022-12-18T12:44:51;-2.00;83.60
2042;DHT22;1026;51.460;7.252;2022-12-18T12:47:26;-2.00;83.60
2042;DHT22;1026;51.460;7.252;2022-12-18T12:49:54;-1.90;83.80
2042;DHT22;1026;51.460;7.252;2022-12-18T12:52:33;-1.90;83.80
2042;DHT22;1026;51.460;7.252;2022-12-18T12:55:02;-1.90;83.80
2042;DHT22;1026;51.460;7.252;2022-12-18T12:57:40;-1.90;83.80
2042;DHT22;1026;51.460;7.252;2022-12-18T13:00:16;-1.80;83.90
2042;DHT22;1026;51.460;7.252;2022-12-18T13:03:03;-1.80;83.80
2042;DHT22;1026;51.460;7.252;2022-12-18T13:05:45;-2.00;83.70
2042;DHT22;1026;51.460;7.252;2022-12-18T13:08:30;-1.80;84.00
2042;DHT22;1026;51.460;7.252;2022-12-18T13:10:58;-1.80;84.00
2042;DHT22;1026;51.460;7.252;2022-12-18T13:13:56;-1.80;84.00
2042;DHT22;1026;51.460;7.252;2022-12-18T13:16:25;-1.70;84.10
2042;DHT22;1026;51.460;7.252;2022-12-18T13:18:56;-1.70;84.10
2042;DHT22;1026;51.460;7.252;2022-12-18T13:21:28;-1.70;84.10
2042;DHT22;1026;51.460;7.252;2022-12-18T13:23:55;-1.70;84.10
2042;DHT22;1026;51.460;7.252;2022-12-18T13:28:50;-1.80;84.10
2042;DHT22;1026;51.460;7.252;2022-12-18T13:34:19;-1.70;84.20
2042;DHT22;1026;51.460;7.252;2022-12-18T13:36:46;-1.60;84.40
2042;DHT22;1026;51.460;7.252;2022-12-18T13:39:23;-1.60;84.40
2042;DHT22;1026;51.460;7.252;2022-12-18T13:41:53;-1.60;84.50
2042;DHT22;1026;51.460;7.252;2022-12-18T13:44:37;-1.60;84.50
2042;DHT22;1026;51.460;7.252;2022-12-18T13:49:50;-1.60;84.60
2042;DHT22;1026;51.460;7.252;2022-12-18T13:52:21;-1.50;84.60
2042;DHT22;1026;51.460;7.252;2022-12-18T13:54:53;-1.50;84.60
2042;DHT22;1026;51.460;7.252;2022-12-18T13:57:38;-1.50;84.70
2042;DHT22;1026;51.460;7.252;2022-12-18T14:02:48;-1.50;84.80
2042;DHT22;1026;51.460;7.252;2022-12-18T14:05:31;-1.50;84.80
2042;DHT22;1026;51.460;7.252;2022-12-18T14:08:03;-1.50;84.90
2042;DHT22;1026;51.460;7.252;2022-12-18T14:10:30;-1.50;84.90
2042;DHT22;1026;51.460;7.252;2022-12-18T14:13:06;-1.50;85.00
2042;DHT22;1026;51.460;7.252;2022-12-18T14:15:38;-1.40;85.10
2042;DHT22;1026;51.460;7.252;2022-12-18T14:18:24;-1.50;85.00
2042;DHT22;1026;51.460;7.252;2022-12-18T14:20:52;-1.40;85.10
2042;DHT22;1026;51.460;7.252;2022-12-18T14:23:37;-1.40;85.20
2042;DHT22;1026;51.460;7.252;2022-12-18T14:28:45;-1.40;85.30
2042;DHT22;1026;51.460;7.252;2022-12-18T14:31:20;-1.40;85.40
2042;DHT22;1026;51.460;7.252;2022-12-18T14:33:46;-1.40;85.50
2042;DHT22;1026;51.460;7.252;2022-12-18T14:36:17;-1.40;85.40
2042;DHT22;1026;51.460;7.252;2022-12-18T14:38:49;-1.30;85.60
2042;DHT22;1026;51.460;7.252;2022-12-18T14:41:16;-1.30;85.70
2042;DHT22;1026;51.460;7.252;2022-12-18T14:43:44;-1.30;85.60
2042;DHT22;1026;51.460;7.252;2022-12-18T14:46:27;-1.30;85.60
2042;DHT22;1026;51.460;7.252;2022-12-18T14:48:53;-1.30;85.70
2042;DHT22;1026;51.460;7.252;2022-12-18T14:51:21;-1.30;85.70
2042;DHT22;1026;51.460;7.252;2022-12-18T14:53:51;-1.30;85.70
2042;DHT22;1026;51.460;7.252;2022-12-18T14:56:24;-1.40;85.70
2042;DHT22;1026;51.460;7.252;2022-12-18T14:58:57;-1.30;85.90
2042;DHT22;1026;51.460;7.252;2022-12-18T15:01:29;-1.20;86.00
2042;DHT22;1026;51.460;7.252;2022-12-18T15:03:57;-1.20;85.90
2042;DHT22;1026;51.460;7.252;2022-12-18T15:08:59;-1.30;85.80
2042;DHT22;1026;51.460;7.252;2022-12-18T15:11:27;-1.20;86.00
2042;DHT22;1026;51.460;7.252;2022-12-18T15:13:53;-1.30;85.90
2042;DHT22;1026;51.460;7.252;2022-12-18T15:16:18;-1.20;85.90
2042;DHT22;1026;51.460;7.252;2022-12-18T15:18:44;-1.20;85.90
2042;DHT22;1026;51.460;7.252;2022-12-18T15:21:17;-1.10;86.10
2042;DHT22;1026;51.460;7.252;2022-12-18T15:26:11;-1.10;86.10
2042;DHT22;1026;51.460;7.252;2022-12-18T15:28:44;-1.10;86.20
2042;DHT22;1026;51.460;7.252;2022-12-18T15:33:40;-1.20;86.10
2042;DHT22;1026;51.460;7.252;2022-12-18T15:36:12;-1.20;86.80
2042;DHT22;1026;51.460;7.252;2022-12-18T15:38:38;-1.10;86.20
2042;DHT22;1026;51.460;7.252;2022-12-18T15:41:03;-1.10;86.30
2042;DHT22;1026;51.460;7.252;2022-12-18T15:43:30;-1.20;86.10
2042;DHT22;1026;51.460;7.252;2022-12-18T15:46:04;-1.10;86.30
2042;DHT22;1026;51.460;7.252;2022-12-18T15:48:33;-1.10;86.40
2042;DHT22;1026;51.460;7.252;2022-12-18T15:51:00;-1.10;86.40
2042;DHT22;1026;51.460;7.252;2022-12-18T15:53:30;-1.10;86.50
2042;DHT22;1026;51.460;7.252;2022-12-18T15:55:57;-1.00;86.60
2042;DHT22;1026;51.460;7.252;2022-12-18T15:58:38;-1.10;86.50
2042;DHT22;1026;51.460;7.252;2022-12-18T16:01:04;-1.00;86.60
2042;DHT22;1026;51.460;7.252;2022-12-18T16:03:31;-1.00;86.60
2042;DHT22;1026;51.460;7.252;2022-12-18T16:05:56;-1.10;86.50
2042;DHT22;1026;51.460;7.252;2022-12-18T16:08:23;-1.00;86.70
2042;DHT22;1026;51.460;7.252;2022-12-18T16:10:49;-1.00;86.60
2042;DHT22;1026;51.460;7.252;2022-12-18T16:13:16;-1.00;86.70
2042;DHT22;1026;51.460;7.252;2022-12-18T16:15:44;-1.00;86.80
2042;DHT22;1026;51.460;7.252;2022-12-18T16:18:09;-1.00;86.70
2042;DHT22;1026;51.460;7.252;2022-12-18T16:20:35;-1.10;86.70
2042;DHT22;1026;51.460;7.252;2022-12-18T16:23:01;-1.00;86.80
2042;DHT22;1026;51.460;7.252;2022-12-18T16:25:28;-1.00;86.80
2042;DHT22;1026;51.460;7.252;2022-12-18T16:27:54;-1.00;86.80
2042;DHT22;1026;51.460;7.252;2022-12-18T16:30:23;-1.00;86.90
2042;DHT22;1026;51.460;7.252;2022-12-18T16:32:49;-1.00;86.90
2042;DHT22;1026;51.460;7.252;2022-12-18T16:35:16;-1.00;86.90
2042;DHT22;1026;51.460;7.252;2022-12-18T16:37:42;-0.90;87.00
2042;DHT22;1026;51.460;7.252;2022-12-18T16:40:11;-1.00;87.00
2042;DHT22;1026;51.460;7.252;2022-12-18T16:42:38;-0.90;87.10
2042;DHT22;1026;51.460;7.252;2022-12-18T16:45:06;-0.90;87.20
2042;DHT22;1026;51.460;7.252;2022-12-18T16:47:32;-0.90;87.20
2042;DHT22;1026;51.460;7.252;2022-12-18T16:49:58;-0.90;87.20
2042;DHT22;1026;51.460;7.252;2022-12-18T16:52:23;-0.90;87.20
2042;DHT22;1026;51.460;7.252;2022-12-18T16:54:49;-0.90;87.20
2042;DHT22;1026;51.460;7.252;2022-12-18T16:57:17;-0.90;87.20
2042;DHT22;1026;51.460;7.252;2022-12-18T16:59:43;-0.90;87.20
2042;DHT22;1026;51.460;7.252;2022-12-18T17:02:13;-0.90;87.30
2042;DHT22;1026;51.460;7.252;2022-12-18T17:04:40;-0.90;87.30
2042;DHT22;1026;51.460;7.252;2022-12-18T17:07:06;-0.90;87.30
2042;DHT22;1026;51.460;7.252;2022-12-18T17:09:32;-0.90;87.30
2042;DHT22;1026;51.460;7.252;2022-12-18T17:11:58;-0.90;87.30
2042;DHT22;1026;51.460;7.252;2022-12-18T17:14:25;-0.90;87.40
2042;DHT22;1026;51.460;7.252;2022-12-18T17:16:51;-0.90;87.50
2042;DHT22;1026;51.460;7.252;2022-12-18T17:19:17;-0.80;87.60
2042;DHT22;1026;51.460;7.252;2022-12-18T17:21:43;-0.80;87.60
2042;DHT22;1026;51.460;7.252;2022-12-18T17:24:09;-0.80;87.60
2042;DHT22;1026;51.460;7.252;2022-12-18T17:26:36;-0.80;87.60
2042;DHT22;1026;51.460;7.252;2022-12-18T17:29:02;-0.80;87.60
2042;DHT22;1026;51.460;7.252;2022-12-18T17:31:28;-0.80;87.70
2042;DHT22;1026;51.460;7.252;2022-12-18T17:33:55;-0.80;87.70
2042;DHT22;1026;51.460;7.252;2022-12-18T17:36:21;-0.90;87.60